sensor_id;sensor_type;location;lat;lon;timestamp;P1;durP1;ratioP1;P2;durP2;ratioP2
28796;SDS011;24974;54.444;18.560;2022-12-18T00:00:30;48.22;;;25.92;;
28796;SDS011;24974;54.444;18.560;2022-12-18T00:03:01;49.95;;;26.30;;
28796;SDS011;24974;54.444;18.560;2022-12-18T00:05:31;55.70;;;27.60;;
28796;SDS011;24974;54.444;18.560;2022-12-18T00:08:02;52.47;;;25.35;;
28796;SDS011;24974;54.444;18.560;2022-12-18T00:10:33;50.28;;;26.33;;
28796;SDS011;24974;54.444;18.560;2022-12-18T00:13:04;46.30;;;25.90;;
28796;SDS011;24974;54.444;18.560;2022-12-18T00:15:35;47.28;;;26.45;;
28796;SDS011;24974;54.444;18.560;2022-12-18T00:18:08;51.10;;;25.90;;
28796;SDS011;24974;54.444;18.560;2022-12-18T00:20:39;42.58;;;22.58;;
28796;SDS011;24974;54.444;18.560;2022-12-18T00:23:10;48.47;;;25.48;;
28796;SDS011;24974;54.444;18.560;2022-12-18T00:25:41;48.75;;;24.08;;
28796;SDS011;24974;54.444;18.560;2022-12-18T00:28:12;45.17;;;25.40;;
28796;SDS011;24974;54.444;18.560;2022-12-18T00:30:43;45.88;;;25.52;;
28796;SDS011;24974;54.444;18.560;2022-12-18T00:33:14;51.75;;;25.25;;
28796;SDS011;24974;54.444;18.560;2022-12-18T00:35:45;43.08;;;23.42;;
28796;SDS011;24974;54.444;18.560;2022-12-18T00:38:16;49.72;;;25.70;;
28796;SDS011;24974;54.444;18.560;2022-12-18T00:40:47;52.17;;;26.42;;
28796;SDS011;24974;54.444;18.560;2022-12-18T00:43:18;49.72;;;26.40;;
28796;SDS011;24974;54.444;18.560;2022-12-18T00:45:49;53.53;;;25.08;;
28796;SDS011;24974;54.444;18.560;2022-12-18T00:48:20;49.03;;;25.65;;
28796;SDS011;24974;54.444;18.560;2022-12-18T00:50:51;45.92;;;26.15;;
28796;SDS011;24974;54.444;18.560;2022-12-18T00:53:22;53.75;;;27.38;;
28796;SDS011;24974;54.444;18.560;2022-12-18T00:55:53;52.00;;;26.67;;
28796;SDS011;24974;54.444;18.560;2022-12-18T00:58:24;51.30;;;26.50;;
28796;SDS011;24974;54.444;18.560;2022-12-18T01:00:55;53.45;;;27.27;;
28796;SDS011;24974;54.444;18.560;2022-12-18T01:03:26;66.80;;;30.63;;
28796;SDS011;24974;54.444;18.560;2022-12-18T01:05:57;69.93;;;31.42;;
28796;SDS011;24974;54.444;18.560;2022-12-18T01:08:28;62.50;;;29.35;;
28796;SDS011;24974;54.444;18.560;2022-12-18T01:10:58;68.25;;;32.15;;
28796;SDS011;24974;54.444;18.560;2022-12-18T01:13:29;65.88;;;32.13;;
28796;SDS011;24974;54.444;18.560;2022-12-18T01:16:00;58.65;;;28.63;;
28796;SDS011;24974;54.444;18.560;2022-12-18T01:18:31;64.30;;;31.58;;
28796;SDS011;24974;54.444;18.560;2022-12-18T01:21:06;74.70;;;35.25;;
28796;SDS011;24974;54.444;18.560;2022-12-18T01:23:41;77.05;;;34.25;;
28796;SDS011;24974;54.444;18.560;2022-12-18T01:26:15;64.65;;;31.73;;
28796;SDS011;24974;54.444;18.560;2022-12-18T01:28:47;69.20;;;33.60;;
28796;SDS011;24974;54.444;18.560;2022-12-18T01:31:19;67.40;;;32.70;;
28796;SDS011;24974;54.444;18.560;2022-12-18T01:33:53;69.35;;;29.83;;
28796;SDS011;24974;54.444;18.560;2022-12-18T01:36:28;68.72;;;30.65;;
28796;SDS011;24974;54.444;18.560;2022-12-18T01:39:01;77.72;;;35.22;;
28796;SDS011;24974;54.444;18.560;2022-12-18T01:41:40;76.93;;;33.38;;
28796;SDS011;24974;54.444;18.560;2022-12-18T06:29:21;18.40;;;12.27;;
28796;SDS011;24974;54.444;18.560;2022-12-18T06:31:52;21.27;;;12.88;;
28796;SDS011;24974;54.444;18.560;2022-12-18T06:34:23;18.35;;;11.10;;
28796;SDS011;24974;54.444;18.560;2022-12-18T06:36:54;22.45;;;12.85;;
28796;SDS011;24974;54.444;18.560;2022-12-18T06:39:28;22.58;;;11.88;;
28796;SDS011;24974;54.444;18.560;2022-12-18T06:41:59;21.48;;;11.63;;
28796;SDS011;24974;54.444;18.560;2022-12-18T06:44:30;16.02;;;10.55;;
28796;SDS011;24974;54.444;18.560;2022-12-18T06:47:01;24.10;;;11.98;;
28796;SDS011;24974;54.444;18.560;2022-12-18T06:49:32;21.67;;;10.88;;
28796;SDS011;24974;54.444;18.560;2022-12-18T06:52:02;17.80;;;11.88;;
28796;SDS011;24974;54.444;18.560;2022-12-18T06:54:33;15.23;;;9.32;;
28796;SDS011;24974;54.444;18.560;2022-12-18T06:57:04;21.58;;;11.60;;
28796;SDS011;24974;54.444;18.560;2022-12-18T06:59:36;22.40;;;12.48;;
28796;SDS011;24974;54.444;18.560;2022-12-18T07:02:10;20.60;;;13.38;;
28796;SDS011;24974;54.444;18.560;2022-12-18T07:04:42;20.00;;;13.10;;
28796;SDS011;24974;54.444;18.560;2022-12-18T07:07:12;24.67;;;12.73;;
28796;SDS011;24974;54.444;18.560;2022-12-18T07:09:43;20.70;;;13.15;;
28796;SDS011;24974;54.444;18.560;2022-12-18T07:12:14;16.45;;;10.82;;
28796;SDS011;24974;54.444;18.560;2022-12-18T07:14:45;26.73;;;15.77;;
28796;SDS011;24974;54.444;18.560;2022-12-18T07:17:16;19.73;;;12.15;;
28796;SDS011;24974;54.444;18.560;2022-12-18T07:19:47;27.48;;;14.98;;
28796;SDS011;24974;54.444;18.560;2022-12-18T07:22:18;29.02;;;13.60;;
28796;SDS011;24974;54.444;18.560;2022-12-18T07:24:48;22.75;;;14.13;;
28796;SDS011;24974;54.444;18.560;2022-12-18T07:27:19;25.23;;;15.05;;
28796;SDS011;24974;54.444;18.560;2022-12-18T07:29:50;30.80;;;16.63;;
28796;SDS011;24974;54.444;18.560;2022-12-18T07:32:21;27.65;;;16.13;;
28796;SDS011;24974;54.444;18.560;2022-12-18T07:34:52;28.60;;;17.52;;
28796;SDS011;24974;54.444;18.560;2022-12-18T07:37:23;33.42;;;19.55;;
28796;SDS011;24974;54.444;18.560;2022-12-18T07:39:53;32.35;;;17.98;;
28796;SDS011;24974;54.444;18.560;2022-12-18T07:42:24;31.48;;;17.95;;
28796;SDS011;24974;54.444;18.560;2022-12-18T07:45:01;31.08;;;17.00;;
28796;SDS011;24974;54.444;18.560;2022-12-18T07:47:36;25.58;;;14.77;;
28796;SDS011;24974;54.444;18.560;2022-12-18T07:50:07;30.50;;;18.60;;
28796;SDS011;24974;54.444;18.560;2022-12-18T07:52:38;30.02;;;16.75;;
28796;SDS011;24974;54.444;18.560;2022-12-18T07:55:09;28.25;;;16.30;;
28796;SDS011;24974;54.444;18.560;2022-12-18T07:57:39;26.67;;;15.85;;
28796;SDS011;24974;54.444;18.560;2022-12-18T08:00:10;31.92;;;17.90;;
28796;SDS011;24974;54.444;18.560;2022-12-18T08:02:45;30.73;;;18.33;;
28796;SDS011;24974;54.444;18.560;2022-12-18T08:05:16;32.83;;;17.20;;
28796;SDS011;24974;54.444;18.560;2022-12-18T08:07:47;36.03;;;20.35;;
28796;SDS011;24974;54.444;18.560;2022-12-18T08:10:18;27.15;;;18.20;;
28796;SDS011;24974;54.444;18.560;2022-12-18T08:12:50;24.45;;;15.75;;
28796;SDS011;24974;54.444;18.560;2022-12-18T08:15:21;33.25;;;20.42;;
28796;SDS011;24974;54.444;18.560;2022-12-18T08:17:55;28.30;;;17.63;;
28796;SDS011;24974;54.444;18.560;2022-12-18T08:20:27;32.13;;;16.73;;
28796;SDS011;24974;54.444;18.560;2022-12-18T08:22:58;25.15;;;16.60;;
28796;SDS011;24974;54.444;18.560;2022-12-18T08:25:29;38.30;;;20.88;;
28796;SDS011;24974;54.444;18.560;2022-12-18T08:28:00;33.05;;;19.38;;
28796;SDS011;24974;54.444;18.560;2022-12-18T08:30:30;32.00;;;19.70;;
28796;SDS011;24974;54.444;18.560;2022-12-18T08:33:02;37.53;;;20.83;;
28796;SDS011;24974;54.444;18.560;2022-12-18T08:35:36;35.95;;;20.42;;
28796;SDS011;24974;54.444;18.560;2022-12-18T08:38:07;39.58;;;22.50;;
28796;SDS011;24974;54.444;18.560;2022-12-18T08:40:38;38.88;;;22.00;;
28796;SDS011;24974;54.444;18.560;2022-12-18T08:43:10;38.83;;;20.92;;
28796;SDS011;24974;54.444;18.560;2022-12-18T08:45:59;36.63;;;21.27;;
28796;SDS011;24974;54.444;18.560;2022-12-18T08:48:30;38.17;;;22.63;;
28796;SDS011;24974;54.444;18.560;2022-12-18T08:51:01;25.35;;;15.50;;
28796;SDS011;24974;54.444;18.560;2022-12-18T08:53:32;41.78;;;22.98;;
28796;SDS011;24974;54.444;18.560;2022-12-18T08:56:03;36.97;;;22.17;;
28796;SDS011;24974;54.444;18.560;2022-12-18T08:58:34;39.17;;;23.63;;
28796;SDS011;24974;54.444;18.560;2022-12-18T09:01:06;31.17;;;18.40;;
28796;SDS011;24974;54.444;18.560;2022-12-18T09:06:19;39.65;;;20.17;;
28796;SDS011;24974;54.444;18.560;2022-12-18T09:08:51;38.50;;;22.73;;
28796;SDS011;24974;54.444;18.560;2022-12-18T09:11:23;35.83;;;21.40;;
28796;SDS011;24974;54.444;18.560;2022-12-18T09:13:56;37.70;;;22.05;;
28796;SDS011;24974;54.444;18.560;2022-12-18T09:16:28;41.55;;;20.00;;
28796;SDS011;24974;54.444;18.560;2022-12-18T09:19:00;41.17;;;25.23;;
28796;SDS011;24974;54.444;18.560;2022-12-18T09:21:34;37.58;;;18.95;;
28796;SDS011;24974;54.444;18.560;2022-12-18T09:24:11;44.17;;;23.88;;
28796;SDS011;24974;54.444;18.560;2022-12-18T09:26:43;42.13;;;24.20;;
28796;SDS011;24974;54.444;18.560;2022-12-18T09:29:15;41.88;;;21.55;;
28796;SDS011;24974;54.444;18.560;2022-12-18T09:31:46;46.00;;;23.35;;
28796;SDS011;24974;54.444;18.560;2022-12-18T09:34:17;41.40;;;23.30;;
28796;SDS011;24974;54.444;18.560;2022-12-18T09:36:51;47.30;;;24.50;;
28796;SDS011;24974;54.444;18.560;2022-12-18T09:39:21;41.20;;;23.08;;
28796;SDS011;24974;54.444;18.560;2022-12-18T09:41:54;50.25;;;26.27;;
28796;SDS011;24974;54.444;18.560;2022-12-18T09:44:35;45.65;;;24.30;;
28796;SDS011;24974;54.444;18.560;2022-12-18T09:47:11;41.25;;;22.70;;
28796;SDS011;24974;54.444;18.560;2022-12-18T09:49:49;45.60;;;24.58;;
28796;SDS011;24974;54.444;18.560;2022-12-18T09:55:02;44.83;;;24.33;;
28796;SDS011;24974;54.444;18.560;2022-12-18T09:58:16;48.38;;;21.73;;
28796;SDS011;24974;54.444;18.560;2022-12-18T10:00:57;42.83;;;23.20;;
28796;SDS011;24974;54.444;18.560;2022-12-18T10:03:28;39.58;;;21.00;;
28796;SDS011;24974;54.444;18.560;2022-12-18T10:14:36;41.03;;;22.98;;
28796;SDS011;24974;54.444;18.560;2022-12-18T10:28:40;37.25;;;18.58;;
28796;SDS011;24974;54.444;18.560;2022-12-18T10:31:24;39.00;;;21.20;;
28796;SDS011;24974;54.444;18.560;2022-12-18T10:33:55;39.80;;;20.02;;
28796;SDS011;24974;54.444;18.560;2022-12-18T10:36:26;43.55;;;20.38;;
28796;SDS011;24974;54.444;18.560;2022-12-18T10:41:49;42.28;;;21.70;;
28796;SDS011;24974;54.444;18.560;2022-12-18T10:44:23;34.55;;;21.45;;
28796;SDS011;24974;54.444;18.560;2022-12-18T10:47:02;38.38;;;19.77;;
28796;SDS011;24974;54.444;18.560;2022-12-18T10:49:35;33.85;;;19.75;;
28796;SDS011;24974;54.444;18.560;2022-12-18T10:52:07;36.28;;;19.50;;
28796;SDS011;24974;54.444;18.560;2022-12-18T10:54:46;41.42;;;20.58;;
28796;SDS011;24974;54.444;18.560;2022-12-18T10:59:57;37.70;;;20.10;;
28796;SDS011;24974;54.444;18.560;2022-12-18T11:02:37;39.83;;;20.80;;
28796;SDS011;24974;54.444;18.560;2022-12-18T11:05:24;32.90;;;18.60;;
28796;SDS011;24974;54.444;18.560;2022-12-18T11:07:58;38.55;;;21.55;;
28796;SDS011;24974;54.444;18.560;2022-12-18T11:10:35;45.40;;;20.67;;
28796;SDS011;24974;54.444;18.560;2022-12-18T11:15:59;44.25;;;22.17;;
28796;SDS011;24974;54.444;18.560;2022-12-18T11:18:33;40.72;;;19.77;;
28796;SDS011;24974;54.444;18.560;2022-12-18T11:21:09;37.38;;;20.77;;
28796;SDS011;24974;54.444;18.560;2022-12-18T11:23:54;37.60;;;19.92;;
28796;SDS011;24974;54.444;18.560;2022-12-18T11:26:33;39.28;;;19.83;;
28796;SDS011;24974;54.444;18.560;2022-12-18T11:29:10;38.10;;;20.13;;
28796;SDS011;24974;54.444;18.560;2022-12-18T11:31:47;26.42;;;15.02;;
28796;SDS011;24974;54.444;18.560;2022-12-18T11:34:30;34.03;;;17.95;;
28796;SDS011;24974;54.444;18.560;2022-12-18T11:37:02;31.92;;;17.92;;
28796;SDS011;24974;54.444;18.560;2022-12-18T11:39:39;34.33;;;19.20;;
28796;SDS011;24974;54.444;18.560;2022-12-18T11:45:03;29.98;;;17.92;;
28796;SDS011;24974;54.444;18.560;2022-12-18T11:47:54;35.67;;;18.40;;
28796;SDS011;24974;54.444;18.560;2022-12-18T11:50:31;37.03;;;19.65;;
28796;SDS011;24974;54.444;18.560;2022-12-18T11:55:49;33.92;;;18.40;;
28796;SDS011;24974;54.444;18.560;2022-12-18T12:09:59;34.08;;;19.10;;
28796;SDS011;24974;54.444;18.560;2022-12-18T12:26:35;19.33;;;12.00;;
28796;SDS011;24974;54.444;18.560;2022-12-18T12:29:10;27.45;;;14.82;;
28796;SDS011;24974;54.444;18.560;2022-12-18T12:31:57;27.85;;;15.07;;
28796;SDS011;24974;54.444;18.560;2022-12-18T12:40:23;24.67;;;13.45;;
28796;SDS011;24974;54.444;18.560;2022-12-18T12:42:58;21.65;;;11.98;;
28796;SDS011;24974;54.444;18.560;2022-12-18T12:45:48;23.42;;;13.35;;
28796;SDS011;24974;54.444;18.560;2022-12-18T12:51:20;22.70;;;12.23;;
28796;SDS011;24974;54.444;18.560;2022-12-18T12:53:54;20.77;;;12.20;;
28796;SDS011;24974;54.444;18.560;2022-12-18T12:56:32;22.27;;;12.80;;
28796;SDS011;24974;54.444;18.560;2022-12-18T13:07:59;18.00;;;10.93;;
28796;SDS011;24974;54.444;18.560;2022-12-18T13:13:14;18.77;;;11.55;;
28796;SDS011;24974;54.444;18.560;2022-12-18T13:15:47;21.40;;;11.63;;
28796;SDS011;24974;54.444;18.560;2022-12-18T13:18:21;21.98;;;11.90;;
28796;SDS011;24974;54.444;18.560;2022-12-18T13:23:27;25.35;;;14.02;;
28796;SDS011;24974;54.444;18.560;2022-12-18T13:28:51;23.52;;;12.57;;
28796;SDS011;24974;54.444;18.560;2022-12-18T13:36:53;24.65;;;13.70;;
28796;SDS011;24974;54.444;18.560;2022-12-18T13:39:31;15.43;;;11.13;;
28796;SDS011;24974;54.444;18.560;2022-12-18T13:44:38;26.77;;;13.18;;
28796;SDS011;24974;54.444;18.560;2022-12-18T13:52:55;20.98;;;13.10;;
28796;SDS011;24974;54.444;18.560;2022-12-18T13:55:26;23.15;;;12.57;;
28796;SDS011;24974;54.444;18.560;2022-12-18T13:58:05;23.42;;;11.30;;
28796;SDS011;24974;54.444;18.560;2022-12-18T14:00:40;23.65;;;12.98;;
28796;SDS011;24974;54.444;18.560;2022-12-18T14:03:20;24.23;;;13.98;;
28796;SDS011;24974;54.444;18.560;2022-12-18T14:06:03;19.52;;;12.05;;
28796;SDS011;24974;54.444;18.560;2022-12-18T14:08:41;24.73;;;13.52;;
28796;SDS011;24974;54.444;18.560;2022-12-18T14:11:19;22.92;;;13.85;;
28796;SDS011;24974;54.444;18.560;2022-12-18T14:13:52;14.77;;;9.57;;
28796;SDS011;24974;54.444;18.560;2022-12-18T14:16:23;22.17;;;11.20;;
28796;SDS011;24974;54.444;18.560;2022-12-18T14:18:55;22.23;;;12.90;;
28796;SDS011;24974;54.444;18.560;2022-12-18T14:21:28;27.83;;;14.10;;
28796;SDS011;24974;54.444;18.560;2022-12-18T14:24:04;17.10;;;9.43;;
28796;SDS011;24974;54.444;18.560;2022-12-18T14:26:49;24.63;;;13.27;;
28796;SDS011;24974;54.444;18.560;2022-12-18T14:29:22;26.38;;;13.98;;
28796;SDS011;24974;54.444;18.560;2022-12-18T14:34:41;27.45;;;15.65;;
28796;SDS011;24974;54.444;18.560;2022-12-18T14:37:13;30.95;;;15.52;;
28796;SDS011;24974;54.444;18.560;2022-12-18T14:39:52;29.77;;;15.63;;
28796;SDS011;24974;54.444;18.560;2022-12-18T14:42:27;33.08;;;16.50;;
28796;SDS011;24974;54.444;18.560;2022-12-18T14:48:14;31.80;;;15.90;;
28796;SDS011;24974;54.444;18.560;2022-12-18T14:51:32;29.00;;;15.68;;
28796;SDS011;24974;54.444;18.560;2022-12-18T14:53:58;23.08;;;13.32;;
28796;SDS011;24974;54.444;18.560;2022-12-18T14:56:32;24.17;;;15.52;;
28796;SDS011;24974;54.444;18.560;2022-12-18T14:59:06;34.13;;;16.90;;
28796;SDS011;24974;54.444;18.560;2022-12-18T15:01:56;36.50;;;17.85;;
28796;SDS011;24974;54.444;18.560;2022-12-18T15:04:46;16.65;;;10.45;;
28796;SDS011;24974;54.444;18.560;2022-12-18T15:07:21;26.60;;;16.02;;
28796;SDS011;24974;54.444;18.560;2022-12-18T15:26:08;29.85;;;16.08;;
28796;SDS011;24974;54.444;18.560;2022-12-18T15:28:45;29.42;;;16.00;;
28796;SDS011;24974;54.444;18.560;2022-12-18T15:31:23;25.95;;;14.68;;
28796;SDS011;24974;54.444;18.560;2022-12-18T15:34:11;32.88;;;15.85;;
28796;SDS011;24974;54.444;18.560;2022-12-18T15:36:44;30.38;;;15.00;;
28796;SDS011;24974;54.444;18.560;2022-12-18T15:39:15;34.25;;;16.40;;
28796;SDS011;24974;54.444;18.560;2022-12-18T15:41:46;31.33;;;15.05;;
28796;SDS011;24974;54.444;18.560;2022-12-18T15:44:35;31.48;;;15.23;;
28796;SDS011;24974;54.444;18.560;2022-12-18T15:47:09;30.73;;;16.25;;
28796;SDS011;24974;54.444;18.560;2022-12-18T15:49:42;30.77;;;18.98;;
28796;SDS011;24974;54.444;18.560;2022-12-18T15:52:13;35.97;;;15.00;;
28796;SDS011;24974;54.444;18.560;2022-12-18T15:54:44;35.15;;;15.80;;
28796;SDS011;24974;54.444;18.560;2022-12-18T15:57:33;30.92;;;17.20;;
28796;SDS011;24974;54.444;18.560;2022-12-18T16:00:04;30.00;;;16.02;;
28796;SDS011;24974;54.444;18.560;2022-12-18T16:02:35;33.38;;;16.35;;
28796;SDS011;24974;54.444;18.560;2022-12-18T16:05:13;38.72;;;17.30;;
28796;SDS011;24974;54.444;18.560;2022-12-18T16:07:47;30.05;;;15.55;;
28796;SDS011;24974;54.444;18.560;2022-12-18T16:10:18;33.75;;;17.30;;
28796;SDS011;24974;54.444;18.560;2022-12-18T16:12:49;42.22;;;18.98;;
28796;SDS011;24974;54.444;18.560;2022-12-18T16:15:20;35.05;;;16.50;;
28796;SDS011;24974;54.444;18.560;2022-12-18T16:17:51;28.60;;;15.18;;
28796;SDS011;24974;54.444;18.560;2022-12-18T16:20:22;37.25;;;18.25;;
28796;SDS011;24974;54.444;18.560;2022-12-18T16:22:53;28.08;;;15.68;;
28796;SDS011;24974;54.444;18.560;2022-12-18T16:25:24;27.17;;;16.20;;
28796;SDS011;24974;54.444;18.560;2022-12-18T16:27:57;35.38;;;17.98;;
28796;SDS011;24974;54.444;18.560;2022-12-18T16:30:29;35.97;;;16.77;;
28796;SDS011;24974;54.444;18.560;2022-12-18T16:33:01;32.42;;;17.85;;
28796;SDS011;24974;54.444;18.560;2022-12-18T16:35:31;37.97;;;18.83;;
28796;SDS011;24974;54.444;18.560;2022-12-18T16:38:02;33.42;;;16.60;;
28796;SDS011;24974;54.444;18.560;2022-12-18T16:40:33;47.85;;;24.00;;
28796;SDS011;24974;54.444;18.560;2022-12-18T16:43:24;33.20;;;15.32;;
28796;SDS011;24974;54.444;18.560;2022-12-18T16:45:55;32.85;;;17.45;;
28796;SDS011;24974;54.444;18.560;2022-12-18T16:48:27;33.92;;;19.20;;
28796;SDS011;24974;54.444;18.560;2022-12-18T16:50:59;32.83;;;16.08;;
28796;SDS011;24974;54.444;18.560;2022-12-18T16:53:32;34.75;;;16.10;;
28796;SDS011;24974;54.444;18.560;2022-12-18T16:56:03;34.58;;;17.23;;
28796;SDS011;24974;54.444;18.560;2022-12-18T16:58:34;41.10;;;20.42;;
28796;SDS011;24974;54.444;18.560;2022-12-18T17:01:06;37.80;;;20.20;;
28796;SDS011;24974;54.444;18.560;2022-12-18T17:03:38;41.13;;;20.88;;
28796;SDS011;24974;54.444;18.560;2022-12-18T17:06:09;47.85;;;20.30;;
28796;SDS011;24974;54.444;18.560;2022-12-18T17:08:40;38.72;;;19.48;;
28796;SDS011;24974;54.444;18.560;2022-12-18T17:11:11;42.65;;;21.40;;
28796;SDS011;24974;54.444;18.560;2022-12-18T17:13:42;36.33;;;19.20;;
28796;SDS011;24974;54.444;18.560;2022-12-18T17:16:13;42.10;;;19.55;;
28796;SDS011;24974;54.444;18.560;2022-12-18T17:18:44;33.67;;;17.75;;
28796;SDS011;24974;54.444;18.560;2022-12-18T17:21:16;32.28;;;16.83;;
28796;SDS011;24974;54.444;18.560;2022-12-18T17:23:47;40.55;;;20.73;;
28796;SDS011;24974;54.444;18.560;2022-12-18T17:26:18;33.30;;;17.67;;
28796;SDS011;24974;54.444;18.560;2022-12-18T17:28:48;35.45;;;18.45;;
28796;SDS011;24974;54.444;18.560;2022-12-18T17:31:20;34.20;;;17.15;;
28796;SDS011;24974;54.444;18.560;2022-12-18T17:33:53;27.60;;;13.93;;
28796;SDS011;24974;54.444;18.560;2022-12-18T17:36:24;41.45;;;18.63;;
28796;SDS011;24974;54.444;18.560;2022-12-18T17:39:00;34.90;;;19.27;;
28796;SDS011;24974;54.444;18.560;2022-12-18T17:41:32;37.67;;;19.85;;
28796;SDS011;24974;54.444;18.560;2022-12-18T17:44:04;51.55;;;23.90;;
28796;SDS011;24974;54.444;18.560;2022-12-18T17:46:35;45.80;;;20.38;;
28796;SDS011;24974;54.444;18.560;2022-12-18T17:49:06;36.58;;;16.00;;
28796;SDS011;24974;54.444;18.560;2022-12-18T17:51:37;32.47;;;16.67;;
28796;SDS011;24974;54.444;18.560;2022-12-18T17:54:09;46.05;;;19.65;;
28796;SDS011;24974;54.444;18.560;2022-12-18T17:56:41;39.90;;;18.73;;
28796;SDS011;24974;54.444;18.560;2022-12-18T17:59:12;52.67;;;21.75;;
28796;SDS011;24974;54.444;18.560;2022-12-18T18:01:43;50.25;;;24.13;;
28796;SDS011;24974;54.444;18.560;2022-12-18T18:04:14;38.63;;;18.75;;
28796;SDS011;24974;54.444;18.560;2022-12-18T18:06:45;39.80;;;20.83;;
28796;SDS011;24974;54.444;18.560;2022-12-18T18:09:15;48.45;;;23.25;;
28796;SDS011;24974;54.444;18.560;2022-12-18T18:11:46;61.22;;;24.05;;
28796;SDS011;24974;54.444;18.560;2022-12-18T18:14:36;43.00;;;21.10;;
28796;SDS011;24974;54.444;18.560;2022-12-18T18:17:07;38.22;;;19.23;;
28796;SDS011;24974;54.444;18.560;2022-12-18T18:19:38;46.88;;;21.35;;
28796;SDS011;24974;54.444;18.560;2022-12-18T18:22:09;45.00;;;21.48;;
28796;SDS011;24974;54.444;18.560;2022-12-18T18:24:40;48.42;;;25.10;;
28796;SDS011;24974;54.444;18.560;2022-12-18T18:27:13;46.90;;;23.23;;
28796;SDS011;24974;54.444;18.560;2022-12-18T18:29:44;56.53;;;25.05;;
28796;SDS011;24974;54.444;18.560;2022-12-18T18:32:15;43.45;;;21.25;;
28796;SDS011;24974;54.444;18.560;2022-12-18T18:34:46;47.65;;;21.70;;
28796;SDS011;24974;54.444;18.560;2022-12-18T18:37:17;51.92;;;19.30;;
28796;SDS011;24974;54.444;18.560;2022-12-18T18:39:48;47.65;;;23.00;;
28796;SDS011;24974;54.444;18.560;2022-12-18T18:42:18;46.92;;;23.17;;
28796;SDS011;24974;54.444;18.560;2022-12-18T18:44:49;46.08;;;22.02;;
28796;SDS011;24974;54.444;18.560;2022-12-18T18:47:20;46.97;;;22.65;;
28796;SDS011;24974;54.444;18.560;2022-12-18T18:49:51;42.63;;;20.10;;
28796;SDS011;24974;54.444;18.560;2022-12-18T18:52:22;43.67;;;21.55;;
28796;SDS011;24974;54.444;18.560;2022-12-18T18:54:52;45.95;;;21.80;;
28796;SDS011;24974;54.444;18.560;2022-12-18T18:57:23;50.20;;;24.45;;
28796;SDS011;24974;54.444;18.560;2022-12-18T18:59:54;58.88;;;24.23;;
28796;SDS011;24974;54.444;18.560;2022-12-18T19:02:25;59.70;;;27.35;;
28796;SDS011;24974;54.444;18.560;2022-12-18T19:04:56;48.58;;;22.63;;
28796;SDS011;24974;54.444;18.560;2022-12-18T19:07:27;58.10;;;21.98;;
28796;SDS011;24974;54.444;18.560;2022-12-18T19:09:58;61.22;;;27.25;;
28796;SDS011;24974;54.444;18.560;2022-12-18T19:12:29;50.95;;;23.08;;
28796;SDS011;24974;54.444;18.560;2022-12-18T19:15:18;56.17;;;25.48;;
28796;SDS011;24974;54.444;18.560;2022-12-18T19:17:49;56.40;;;30.58;;
28796;SDS011;24974;54.444;18.560;2022-12-18T19:20:20;45.10;;;25.35;;
28796;SDS011;24974;54.444;18.560;2022-12-18T19:22:51;59.55;;;31.15;;
28796;SDS011;24974;54.444;18.560;2022-12-18T19:25:25;52.90;;;26.42;;
28796;SDS011;24974;54.444;18.560;2022-12-18T19:27:58;55.17;;;25.38;;
28796;SDS011;24974;54.444;18.560;2022-12-18T19:30:29;60.03;;;32.50;;
28796;SDS011;24974;54.444;18.560;2022-12-18T19:33:00;57.08;;;24.20;;
28796;SDS011;24974;54.444;18.560;2022-12-18T19:35:31;60.10;;;24.45;;
28796;SDS011;24974;54.444;18.560;2022-12-18T19:38:01;49.38;;;23.73;;
28796;SDS011;24974;54.444;18.560;2022-12-18T19:40:32;67.57;;;26.90;;
28796;SDS011;24974;54.444;18.560;2022-12-18T19:43:03;60.05;;;23.58;;
28796;SDS011;24974;54.444;18.560;2022-12-18T19:45:34;70.50;;;28.85;;
28796;SDS011;24974;54.444;18.560;2022-12-18T19:48:06;57.33;;;28.02;;
28796;SDS011;24974;54.444;18.560;2022-12-18T19:50:40;50.08;;;21.05;;
28796;SDS011;24974;54.444;18.560;2022-12-18T19:53:11;62.78;;;30.70;;
28796;SDS011;24974;54.444;18.560;2022-12-18T19:55:42;56.35;;;28.95;;
28796;SDS011;24974;54.444;18.560;2022-12-18T19:58:13;60.05;;;26.88;;
28796;SDS011;24974;54.444;18.560;2022-12-18T20:00:44;57.45;;;27.30;;
28796;SDS011;24974;54.444;18.560;2022-12-18T20:03:15;66.43;;;29.13;;
28796;SDS011;24974;54.444;18.560;2022-12-18T20:05:45;67.63;;;29.25;;
28796;SDS011;24974;54.444;18.560;2022-12-18T20:08:16;73.55;;;31.05;;
28796;SDS011;24974;54.444;18.560;2022-12-18T20:10:47;70.63;;;31.63;;
28796;SDS011;24974;54.444;18.560;2022-12-18T20:13:18;65.85;;;27.17;;
28796;SDS011;24974;54.444;18.560;2022-12-18T20:15:49;59.15;;;23.60;;
28796;SDS011;24974;54.444;18.560;2022-12-18T20:18:20;71.72;;;32.90;;
28796;SDS011;24974;54.444;18.560;2022-12-18T20:20:51;69.25;;;29.15;;
28796;SDS011;24974;54.444;18.560;2022-12-18T20:23:22;70.57;;;29.75;;
28796;SDS011;24974;54.444;18.560;2022-12-18T20:25:53;50.70;;;22.58;;
28796;SDS011;24974;54.444;18.560;2022-12-18T20:28:24;52.75;;;25.50;;
28796;SDS011;24974;54.444;18.560;2022-12-18T20:30:59;53.65;;;23.85;;
28796;SDS011;24974;54.444;18.560;2022-12-18T20:33:31;70.22;;;29.02;;
28796;SDS011;24974;54.444;18.560;2022-12-18T20:36:06;67.35;;;26.77;;
28796;SDS011;24974;54.444;18.560;2022-12-18T20:38:41;63.50;;;24.92;;
28796;SDS011;24974;54.444;18.560;2022-12-18T20:41:16;68.65;;;29.40;;
28796;SDS011;24974;54.444;18.560;2022-12-18T20:46:19;62.53;;;29.38;;
28796;SDS011;24974;54.444;18.560;2022-12-18T20:48:50;65.70;;;33.08;;
28796;SDS011;24974;54.444;18.560;2022-12-18T20:51:21;49.97;;;22.38;;
28796;SDS011;24974;54.444;18.560;2022-12-18T20:53:53;81.15;;;31.90;;
28796;SDS011;24974;54.444;18.560;2022-12-18T20:56:24;60.30;;;25.98;;
28796;SDS011;24974;54.444;18.560;2022-12-18T20:58:56;69.53;;;31.08;;
28796;SDS011;24974;54.444;18.560;2022-12-18T21:01:29;69.40;;;31.95;;
28796;SDS011;24974;54.444;18.560;2022-12-18T21:04:00;62.20;;;30.65;;
28796;SDS011;24974;54.444;18.560;2022-12-18T21:06:31;57.95;;;23.35;;
28796;SDS011;24974;54.444;18.560;2022-12-18T21:09:01;70.90;;;32.75;;
28796;SDS011;24974;54.444;18.560;2022-12-18T21:11:32;75.88;;;30.52;;
28796;SDS011;24974;54.444;18.560;2022-12-18T21:14:23;63.00;;;25.02;;
28796;SDS011;24974;54.444;18.560;2022-12-18T21:16:56;74.95;;;31.38;;
28796;SDS011;24974;54.444;18.560;2022-12-18T21:19:30;71.97;;;29.23;;
28796;SDS011;24974;54.444;18.560;2022-12-18T21:22:01;70.20;;;31.50;;
28796;SDS011;24974;54.444;18.560;2022-12-18T21:24:32;71.47;;;42.80;;
28796;SDS011;24974;54.444;18.560;2022-12-18T21:27:03;51.63;;;22.75;;
28796;SDS011;24974;54.444;18.560;2022-12-18T21:29:34;66.07;;;28.80;;
28796;SDS011;24974;54.444;18.560;2022-12-18T21:32:05;51.95;;;22.83;;
28796;SDS011;24974;54.444;18.560;2022-12-18T21:34:38;73.82;;;27.10;;
28796;SDS011;24974;54.444;18.560;2022-12-18T21:37:10;78.72;;;31.40;;